Time;durP1;ratioP1;P1;durP2;ratioP2;P2;SDS_P1;SDS_P2;PMS_P1;PMS_P2;Temp;Humidity;BMP_temperature;BMP_pressure;BME280_temperature;BME280_humidity;BME280_pressure;Samples;Min_cycle;Max_cycle;Signal;HPM_P1;HPM_P2
2023/05/26 00:00:54;;;;;;;0.10;0.10;;;13.30;99.90;;;;;;5071844;28;20200;-82
2023/05/26 00:03:20;;;;;;;0.10;0.10;;;13.40;99.90;;;;;;5072121;28;20723;-83
2023/05/26 00:05:45;;;;;;;0.07;0.07;;;13.40;99.90;;;;;;5073660;28;20195;-82
2023/05/26 00:08:11;;;;;;;0.10;0.10;;;13.40;99.90;;;;;;5073178;28;20267;-83
2023/05/26 00:10:36;;;;;;;0.10;0.10;;;13.40;99.90;;;;;;5071619;28;20261;-82
2023/05/26 00:13:03;;;;;;;0.10;0.10;;;13.50;99.90;;;;;;5072646;28;20188;-82
2023/05/26 00:15:28;;;;;;;0.10;0.10;;;13.40;99.90;;;;;;5072177;28;20187;-82
2023/05/26 00:17:57;;;;;;;0.10;0.10;;;13.50;99.90;;;;;;5071235;28;20216;-82
2023/05/26 00:20:26;;;;;;;0.10;0.10;;;13.40;99.90;;;;;;5068265;28;20577;-83
2023/05/26 00:22:51;;;;;;;0.10;0.10;;;13.40;99.90;;;;;;5071359;28;20309;-83
2023/05/26 00:25:17;;;;;;;0.10;0.10;;;13.40;99.90;;;;;;5074470;28;20650;-83
2023/05/26 00:27:42;;;;;;;0.10;0.10;;;13.40;99.90;;;;;;5073976;28;20212;-82
2023/05/26 00:30:09;;;;;;;0.00;0.00;;;13.40;99.90;;;;;;5072621;28;20196;-82
2023/05/26 00:32:35;;;;;;;0.10;0.10;;;13.40;99.90;;;;;;5071563;28;20199;-82
2023/05/26 00:35:01;;;;;;;0.10;0.10;;;13.40;99.90;;;;;;5071843;28;20180;-82
2023/05/26 00:37:26;;;;;;;0.10;0.10;;;13.40;99.90;;;;;;5074545;28;20236;-82
2023/05/26 00:39:52;;;;;;;0.10;0.10;;;13.40;99.90;;;;;;5073430;28;20194;-82
2023/05/26 00:42:17;;;;;;;0.10;0.10;;;13.40;99.90;;;;;;5073002;28;20226;-82
2023/05/26 00:44:43;;;;;;;0.10;0.10;;;13.30;99.90;;;;;;5071490;28;20597;-83
2023/05/26 00:47:08;;;;;;;0.10;0.10;;;13.40;99.90;;;;;;5073548;28;20216;-83
2023/05/26 00:49:34;;;;;;;0.10;0.10;;;13.40;99.90;;;;;;5071925;28;20230;-81
2023/05/26 00:52:00;;;;;;;0.10;0.10;;;13.20;99.90;;;;;;5072849;28;20706;-83
2023/05/26 00:54:26;;;;;;;0.10;0.10;;;13.10;99.90;;;;;;5074010;28;20172;-82
2023/05/26 00:56:54;;;;;;;0.10;0.10;;;13.10;99.90;;;;;;5073547;28;20210;-81
2023/05/26 00:59:20;;;;;;;0.10;0.10;;;13.10;99.90;;;;;;5072755;28;20175;-83
2023/05/26 01:01:45;;;;;;;0.10;0.10;;;13.10;99.90;;;;;;5070913;28;20315;-82
2023/05/26 01:04:12;;;;;;;0.10;0.10;;;13.10;99.90;;;;;;5069986;28;20200;-83
2023/05/26 01:06:38;;;;;;;0.10;0.10;;;13.10;99.90;;;;;;5072492;28;20208;-82
2023/05/26 01:09:03;;;;;;;0.10;0.10;;;13.10;99.90;;;;;;5075146;28;20204;-81
2023/05/26 01:11:43;;;;;;;0.10;0.10;;;13.10;99.90;;;;;;5071992;28;20179;-82
2023/05/26 01:14:24;;;;;;;0.10;0.10;;;13.10;99.90;;;;;;5074279;28;20207;-82
2023/05/26 01:16:56;;;;;;;0.10;0.10;;;13.00;99.90;;;;;;5072871;28;20680;-82
2023/05/26 01:20:07;;;;;;;0.10;0.10;;;12.80;99.90;;;;;;5073276;28;20687;-82
2023/05/26 01:22:50;;;;;;;0.10;0.10;;;12.50;99.90;;;;;;5066152;28;20662;-82
2023/05/26 01:25:25;;;;;;;0.10;0.10;;;12.40;99.90;;;;;;5077740;28;20282;-82
2023/05/26 01:28:12;;;;;;;0.10;0.10;;;12.30;99.90;;;;;;5075011;28;20965;-82
2023/05/26 01:30:38;;;;;;;0.10;0.10;;;12.20;99.90;;;;;;5074734;28;20192;-83
2023/05/26 01:33:04;;;;;;;0.07;0.07;;;12.00;99.90;;;;;;5074513;28;20685;-82
2023/05/26 01:35:30;;;;;;;0.10;0.10;;;12.00;99.90;;;;;;5076245;28;20387;-83
2023/05/26 01:37:57;;;;;;;0.10;0.10;;;12.00;99.90;;;;;;5078105;28;20216;-83
2023/05/26 01:40:22;;;;;;;0.00;0.00;;;12.10;99.90;;;;;;5075756;28;20192;-82
2023/05/26 01:43:11;;;;;;;0.00;0.00;;;12.20;99.90;;;;;;5074147;28;20222;-83
2023/05/26 01:45:43;;;;;;;0.00;0.00;;;12.20;99.90;;;;;;5076279;28;20191;-82
2023/05/26 01:48:10;;;;;;;0.10;0.10;;;12.10;99.90;;;;;;5076681;28;20197;-82
2023/05/26 01:50:44;;;;;;;0.10;0.10;;;12.10;99.90;;;;;;5073668;28;20184;-83
2023/05/26 01:53:12;;;;;;;0.00;0.00;;;12.00;99.90;;;;;;5076123;28;20184;-81
2023/05/26 01:55:39;;;;;;;0.10;0.10;;;11.90;99.90;;;;;;5077329;28;20173;-82
2023/05/26 01:58:05;;;;;;;0.10;0.10;;;11.80;99.90;;;;;;5078868;28;20207;-83
2023/05/26 02:00:31;;;;;;;0.10;0.10;;;11.80;99.90;;;;;;5076618;28;20180;-82
2023/05/26 02:02:56;;;;;;;0.10;0.10;;;11.80;99.90;;;;;;5075724;28;20721;-82
2023/05/26 02:05:22;;;;;;;0.10;0.10;;;11.70;99.90;;;;;;5075647;28;20921;-82
2023/05/26 02:07:47;;;;;;;0.00;0.00;;;11.70;99.90;;;;;;5076456;28;20207;-82
2023/05/26 02:10:13;;;;;;;0.10;0.10;;;11.70;99.90;;;;;;5075948;28;20224;-82
2023/05/26 02:12:39;;;;;;;0.10;0.10;;;11.70;99.90;;;;;;5077926;28;20185;-83
2023/05/26 02:15:05;;;;;;;0.10;0.10;;;11.70;99.90;;;;;;5076154;28;20292;-82
2023/05/26 02:17:30;;;;;;;0.10;0.10;;;11.60;99.90;;;;;;5075626;28;20208;-83
2023/05/26 02:19:57;;;;;;;0.10;0.10;;;11.70;99.90;;;;;;5077846;28;20185;-82
2023/05/26 02:22:22;;;;;;;0.10;0.10;;;11.60;99.90;;;;;;5076360;28;20302;-83
2023/05/26 02:24:48;;;;;;;0.10;0.10;;;11.70;99.90;;;;;;5077623;28;20209;-81
2023/05/26 02:27:15;;;;;;;0.10;0.10;;;11.70;99.90;;;;;;5077911;28;20247;-82
2023/05/26 02:29:41;;;;;;;0.10;0.10;;;11.80;99.90;;;;;;5076325;28;20715;-82
2023/05/26 02:32:06;;;;;;;0.10;0.10;;;11.80;99.90;;;;;;5073955;28;20186;-82
2023/05/26 02:34:32;;;;;;;0.00;0.00;;;11.90;99.90;;;;;;5074968;28;20232;-83
2023/05/26 02:36:57;;;;;;;0.10;0.10;;;12.00;99.90;;;;;;5074662;28;20207;-82
2023/05/26 02:39:23;;;;;;;0.10;0.10;;;12.00;99.90;;;;;;5073680;28;20246;-83
2023/05/26 02:41:48;;;;;;;0.10;0.10;;;12.10;99.90;;;;;;5075320;28;20176;-82
2023/05/26 02:44:14;;;;;;;0.10;0.10;;;12.00;99.90;;;;;;5072836;28;20195;-82
2023/05/26 02:46:40;;;;;;;0.10;0.10;;;12.00;99.90;;;;;;5076354;28;20203;-82
2023/05/26 02:49:06;;;;;;;0.00;0.00;;;12.10;99.90;;;;;;5074919;28;20298;-83
2023/05/26 02:51:33;;;;;;;0.10;0.10;;;12.00;99.90;;;;;;5075336;28;20609;-83
2023/05/26 02:53:59;;;;;;;0.00;0.00;;;12.00;99.90;;;;;;5075796;28;20261;-82
2023/05/26 02:56:24;;;;;;;0.10;0.10;;;12.00;99.90;;;;;;5073138;28;20707;-82
2023/05/26 02:58:50;;;;;;;0.10;0.10;;;12.10;99.90;;;;;;5074465;28;20224;-83
2023/05/26 03:01:16;;;;;;;0.00;0.00;;;12.10;99.90;;;;;;5074485;28;20659;-83
2023/05/26 03:03:41;;;;;;;0.10;0.10;;;12.10;99.90;;;;;;5076263;28;20498;-81
2023/05/26 03:06:07;;;;;;;0.10;0.10;;;12.10;99.90;;;;;;5074732;28;20235;-82
2023/05/26 03:08:34;;;;;;;0.10;0.10;;;12.20;99.90;;;;;;5073959;28;20261;-82
2023/05/26 03:10:59;;;;;;;0.10;0.10;;;12.10;99.90;;;;;;5073116;28;20558;-81
2023/05/26 03:13:25;;;;;;;0.10;0.10;;;12.10;99.90;;;;;;5074281;28;20179;-82
2023/05/26 03:15:50;;;;;;;0.10;0.10;;;12.10;99.90;;;;;;5075226;28;20204;-82
2023/05/26 03:18:16;;;;;;;0.10;0.10;;;12.10;99.90;;;;;;5074063;28;20218;-82
2023/05/26 03:20:43;;;;;;;0.10;0.10;;;12.10;99.90;;;;;;5075705;28;20215;-83
2023/05/26 03:23:08;;;;;;;0.10;0.10;;;12.00;99.90;;;;;;5090864;28;20553;-83
2023/05/26 03:25:34;;;;;;;0.00;0.00;;;12.00;99.90;;;;;;5072594;28;20203;-82
2023/05/26 03:27:59;;;;;;;0.00;0.00;;;12.10;99.90;;;;;;5074513;28;20223;-83
2023/05/26 03:30:25;;;;;;;0.10;0.10;;;12.00;99.90;;;;;;5076948;28;20185;-82
2023/05/26 03:32:50;;;;;;;0.10;0.10;;;11.90;99.90;;;;;;5073091;28;20177;-83
2023/05/26 03:35:16;;;;;;;0.10;0.10;;;11.80;99.90;;;;;;5075164;28;20207;-82
2023/05/26 03:37:42;;;;;;;0.03;0.03;;;11.80;99.90;;;;;;5074259;28;20222;-82
2023/05/26 03:40:09;;;;;;;0.10;0.10;;;11.70;99.90;;;;;;5076908;28;20182;-82
2023/05/26 03:42:34;;;;;;;0.00;0.00;;;11.70;99.90;;;;;;5073151;28;20188;-82
2023/05/26 03:45:00;;;;;;;0.00;0.00;;;11.70;99.90;;;;;;5074230;28;20195;-83
2023/05/26 03:47:26;;;;;;;0.10;0.10;;;12.00;99.90;;;;;;5074303;28;20237;-82
2023/05/26 03:49:51;;;;;;;0.00;0.00;;;12.20;99.90;;;;;;5072602;28;20183;-81
2023/05/26 03:52:17;;;;;;;0.10;0.10;;;12.30;99.90;;;;;;5074779;28;20208;-82
2023/05/26 03:54:42;;;;;;;0.10;0.10;;;12.60;99.90;;;;;;5075804;28;20172;-82
2023/05/26 03:57:08;;;;;;;0.10;0.10;;;13.00;99.90;;;;;;5078759;28;20717;-82
2023/05/26 03:59:33;;;;;;;0.10;0.10;;;13.30;99.90;;;;;;5074218;28;20306;-82
2023/05/26 04:01:59;;;;;;;0.10;0.10;;;13.30;99.90;;;;;;5074288;28;20181;-83
2023/05/26 04:04:25;;;;;;;0.10;0.10;;;13.80;99.90;;;;;;5072640;28;20224;-82
2023/05/26 04:06:50;;;;;;;0.10;0.10;;;14.10;99.90;;;;;;5072933;28;20705;-82
2023/05/26 04:09:16;;;;;;;0.10;0.10;;;14.10;99.90;;;;;;5072792;28;20210;-82
2023/05/26 04:11:41;;;;;;;0.10;0.10;;;14.40;99.90;;;;;;5072455;28;20188;-82
2023/05/26 04:14:07;;;;;;;0.10;0.10;;;14.80;99.90;;;;;;5074996;28;20205;-83
2023/05/26 04:16:33;;;;;;;0.10;0.10;;;14.50;99.90;;;;;;5076021;28;20203;-83
2023/05/26 04:18:59;;;;;;;0.10;0.10;;;14.30;99.90;;;;;;5076382;28;20198;-82
2023/05/26 04:21:24;;;;;;;0.00;0.00;;;14.10;99.90;;;;;;5078575;28;20188;-82
2023/05/26 04:23:51;;;;;;;0.10;0.10;;;14.20;99.90;;;;;;5077296;28;20551;-80
2023/05/26 04:26:17;;;;;;;0.10;0.10;;;14.10;99.90;;;;;;5073483;28;20214;-82
2023/05/26 04:28:44;;;;;;;0.10;0.10;;;14.00;99.90;;;;;;5073711;28;20217;-81
2023/05/26 04:31:09;;;;;;;0.10;0.10;;;14.10;99.90;;;;;;5074518;28;20191;-82
2023/05/26 04:33:39;;;;;;;0.00;0.00;;;14.10;99.90;;;;;;5074235;28;20206;-82
2023/05/26 04:36:08;;;;;;;0.10;0.10;;;13.80;99.90;;;;;;5076016;28;20686;-82
2023/05/26 04:38:41;;;;;;;0.10;0.10;;;13.80;99.90;;;;;;5071609;28;20671;-82
2023/05/26 04:41:07;;;;;;;0.00;0.00;;;13.70;99.90;;;;;;5072047;28;20191;-83
2023/05/26 04:43:34;;;;;;;0.10;0.10;;;13.60;99.90;;;;;;5072219;28;20207;-82
2023/05/26 04:46:02;;;;;;;0.10;0.10;;;13.60;99.90;;;;;;5074173;28;20214;-83
2023/05/26 04:48:28;;;;;;;0.10;0.10;;;13.50;99.90;;;;;;5072452;28;20210;-82
2023/05/26 04:50:53;;;;;;;0.10;0.10;;;13.60;99.90;;;;;;5069873;28;20197;-83
2023/05/26 04:53:19;;;;;;;0.10;0.10;;;13.70;99.90;;;;;;5074350;28;20192;-82
2023/05/26 04:55:44;;;;;;;0.10;0.10;;;13.60;99.90;;;;;;5073262;28;20635;-82
2023/05/26 04:58:10;;;;;;;0.10;0.10;;;13.80;99.90;;;;;;5077896;28;20198;-82
2023/05/26 05:00:36;;;;;;;0.10;0.10;;;13.90;99.90;;;;;;5077521;28;20191;-82
2023/05/26 05:03:03;;;;;;;0.10;0.10;;;13.80;99.90;;;;;;5077790;28;20606;-82
2023/05/26 05:05:29;;;;;;;0.10;0.10;;;13.90;99.90;;;;;;5074786;28;20203;-83
2023/05/26 05:07:55;;;;;;;0.10;0.10;;;13.90;99.90;;;;;;5078937;28;20212;-82
2023/05/26 05:10:21;;;;;;;0.10;0.10;;;14.10;99.90;;;;;;5076902;28;20653;-82
2023/05/26 05:12:46;;;;;;;0.10;0.10;;;14.10;99.90;;;;;;5076647;28;20198;-82
2023/05/26 05:15:12;;;;;;;0.10;0.10;;;14.20;99.90;;;;;;5077192;28;20637;-82
2023/05/26 05:17:38;;;;;;;0.10;0.10;;;14.30;99.90;;;;;;5076142;28;20211;-83
2023/05/26 05:20:07;;;;;;;0.10;0.10;;;14.20;99.90;;;;;;5074667;28;20196;-81
2023/05/26 05:22:33;;;;;;;0.10;0.10;;;14.30;99.90;;;;;;5072941;28;20397;-83
2023/05/26 05:24:58;;;;;;;0.10;0.10;;;14.20;99.90;;;;;;5078662;28;20230;-81
2023/05/26 05:27:24;;;;;;;0.10;0.10;;;14.20;99.90;;;;;;5075660;28;20220;-81
2023/05/26 05:29:49;;;;;;;0.00;0.00;;;14.40;99.90;;;;;;5076993;28;20188;-81
2023/05/26 05:32:15;;;;;;;0.10;0.10;;;14.60;99.90;;;;;;5075944;28;21083;-82
2023/05/26 05:34:41;;;;;;;0.10;0.10;;;14.70;99.90;;;;;;5079061;28;20208;-81
2023/05/26 05:37:06;;;;;;;0.10;0.10;;;14.70;99.90;;;;;;5076166;28;20201;-81
2023/05/26 05:39:32;;;;;;;0.10;0.10;;;14.90;99.90;;;;;;5077595;28;20195;-81
2023/05/26 05:41:57;;;;;;;0.10;0.10;;;14.70;99.90;;;;;;5076035;28;20169;-82
2023/05/26 05:44:23;;;;;;;0.10;0.10;;;14.80;99.90;;;;;;5078584;28;20185;-82
2023/05/26 05:46:48;;;;;;;0.10;0.10;;;15.10;99.90;;;;;;5075512;28;20691;-82
2023/05/26 05:49:14;;;;;;;0.10;0.10;;;15.20;99.90;;;;;;5076952;28;20225;-82
2023/05/26 05:51:39;;;;;;;0.10;0.10;;;15.30;99.90;;;;;;5072585;28;20226;-83
2023/05/26 05:54:05;;;;;;;0.07;0.07;;;15.40;99.90;;;;;;5075020;28;20283;-84
2023/05/26 05:56:31;;;;;;;0.10;0.10;;;15.20;99.90;;;;;;5074724;28;20204;-82
2023/05/26 05:58:56;;;;;;;0.10;0.10;;;15.10;99.90;;;;;;5075106;28;20211;-81
2023/05/26 06:01:22;;;;;;;0.10;0.10;;;15.20;99.90;;;;;;5074781;28;20201;-82
2023/05/26 06:03:47;;;;;;;0.10;0.10;;;15.40;99.90;;;;;;5073061;28;21262;-83
2023/05/26 06:06:13;;;;;;;0.10;0.10;;;15.40;99.90;;;;;;5073848;28;20230;-83
2023/05/26 06:08:38;;;;;;;0.10;0.10;;;15.60;99.90;;;;;;5072286;28;20217;-81
2023/05/26 06:11:04;;;;;;;0.10;0.10;;;15.70;99.90;;;;;;5074188;28;20254;-82
2023/05/26 06:13:30;;;;;;;0.10;0.10;;;15.60;99.90;;;;;;5076335;28;20222;-83
2023/05/26 06:15:55;;;;;;;0.10;0.10;;;15.80;99.90;;;;;;5073081;28;20554;-81
2023/05/26 06:18:21;;;;;;;0.03;0.03;;;16.00;99.90;;;;;;5072315;28;20563;-82
2023/05/26 06:20:47;;;;;;;0.10;0.10;;;15.70;99.90;;;;;;5074860;28;20202;-82
2023/05/26 06:23:12;;;;;;;0.10;0.10;;;16.10;99.90;;;;;;5073688;28;20200;-82
2023/05/26 06:25:38;;;;;;;0.10;0.10;;;16.10;99.90;;;;;;5072751;28;20287;-82
2023/05/26 06:28:03;;;;;;;0.10;0.10;;;16.40;99.90;;;;;;5075270;28;20207;-82
2023/05/26 06:30:29;;;;;;;0.10;0.10;;;16.60;99.90;;;;;;5072192;28;20537;-81
2023/05/26 06:32:55;;;;;;;0.10;0.10;;;16.70;99.90;;;;;;5073643;28;20261;-83
2023/05/26 06:35:21;;;;;;;0.10;0.10;;;16.80;99.90;;;;;;5075677;28;20177;-82
2023/05/26 06:37:46;;;;;;;0.10;0.10;;;17.00;99.90;;;;;;5074306;28;20211;-82
2023/05/26 06:40:12;;;;;;;0.03;0.03;;;16.90;99.90;;;;;;5071336;28;20188;-82
2023/05/26 06:42:38;;;;;;;0.00;0.00;;;16.90;99.90;;;;;;5072997;28;20185;-82
2023/05/26 06:45:03;;;;;;;0.10;0.10;;;17.20;99.90;;;;;;5073513;28;20180;-82
2023/05/26 06:47:29;;;;;;;0.10;0.10;;;17.10;99.90;;;;;;5073692;28;20258;-82
2023/05/26 06:49:55;;;;;;;0.10;0.10;;;17.30;99.90;;;;;;5072528;28;20212;-82
2023/05/26 06:52:20;;;;;;;0.10;0.10;;;17.30;99.90;;;;;;5068958;28;20296;-82
2023/05/26 06:54:46;;;;;;;0.10;0.10;;;17.40;99.90;;;;;;5071858;28;20189;-82
2023/05/26 06:57:13;;;;;;;0.10;0.10;;;17.00;99.90;;;;;;5072108;28;20236;-82
2023/05/26 06:59:39;;;;;;;0.10;0.10;;;17.20;99.90;;;;;;5071425;28;20176;-82
2023/05/26 07:02:04;;;;;;;0.10;0.10;;;17.10;99.90;;;;;;5071742;28;20188;-83
2023/05/26 07:04:30;;;;;;;0.10;0.10;;;16.70;99.90;;;;;;5068410;28;20192;-83
2023/05/26 07:06:55;;;;;;;0.10;0.10;;;16.60;99.90;;;;;;5071837;28;20211;-82
2023/05/26 07:09:21;;;;;;;0.10;0.10;;;17.00;99.90;;;;;;5073027;28;20219;-82
2023/05/26 07:11:47;;;;;;;0.10;0.10;;;17.30;99.90;;;;;;5073854;28;20872;-82
2023/05/26 07:14:12;;;;;;;0.10;0.10;;;17.40;99.90;;;;;;5073591;28;20182;-83
2023/05/26 07:16:38;;;;;;;0.10;0.10;;;17.50;99.90;;;;;;5071943;28;20565;-82
2023/05/26 07:19:03;;;;;;;0.10;0.10;;;17.70;99.90;;;;;;5070965;28;20590;-82
2023/05/26 07:21:29;;;;;;;0.10;0.10;;;17.90;99.90;;;;;;5071410;28;20181;-82
2023/05/26 07:23:54;;;;;;;0.10;0.10;;;17.50;99.90;;;;;;5072724;28;20185;-82
2023/05/26 07:26:20;;;;;;;0.10;0.10;;;17.40;99.90;;;;;;5072036;28;20196;-82
2023/05/26 07:28:46;;;;;;;0.10;0.10;;;17.70;99.90;;;;;;5073036;28;20196;-83
2023/05/26 07:31:12;;;;;;;0.10;0.10;;;17.40;99.90;;;;;;5071725;28;20185;-83
2023/05/26 07:33:37;;;;;;;0.10;0.10;;;17.50;99.90;;;;;;5069792;28;20174;-82
2023/05/26 07:36:03;;;;;;;0.10;0.10;;;17.40;99.90;;;;;;5068966;28;20203;-82
2023/05/26 07:38:28;;;;;;;0.10;0.10;;;17.40;99.90;;;;;;5072940;28;20278;-82
2023/05/26 07:40:54;;;;;;;0.10;0.10;;;17.70;99.90;;;;;;5070303;28;20263;-82
2023/05/26 07:43:20;;;;;;;0.10;0.10;;;17.70;99.90;;;;;;5071709;28;20204;-81
2023/05/26 07:45:46;;;;;;;0.10;0.10;;;17.60;99.90;;;;;;5071187;28;20231;-81
2023/05/26 07:48:11;;;;;;;0.10;0.10;;;17.40;99.90;;;;;;5073513;28;20580;-81
2023/05/26 07:50:37;;;;;;;0.10;0.10;;;18.00;99.90;;;;;;5076658;28;20188;-81
2023/05/26 07:53:02;;;;;;;0.10;0.10;;;17.80;99.90;;;;;;5075626;28;20181;-81
2023/05/26 07:55:28;;;;;;;0.10;0.10;;;18.30;99.90;;;;;;5074067;28;20635;-81
2023/05/26 07:57:53;;;;;;;0.10;0.10;;;17.90;99.90;;;;;;5075639;28;20292;-81
2023/05/26 08:00:19;;;;;;;0.10;0.10;;;17.60;99.90;;;;;;5074773;28;20600;-81
2023/05/26 08:02:44;;;;;;;0.10;0.10;;;18.10;99.90;;;;;;5071365;28;20266;-82
2023/05/26 08:05:10;;;;;;;0.20;0.20;;;18.10;99.90;;;;;;5074260;28;20427;-84
2023/05/26 08:07:36;;;;;;;0.10;0.10;;;18.30;99.90;;;;;;5061819;28;20219;-84
2023/05/26 08:10:03;;;;;;;3.10;3.00;;;18.50;99.90;;;;;;5070904;28;20349;-84
2023/05/26 08:12:29;;;;;;;0.10;0.10;;;18.10;99.90;;;;;;5072022;28;20629;-85
2023/05/26 08:14:55;;;;;;;0.10;0.10;;;18.50;99.90;;;;;;5075226;28;20274;-84
2023/05/26 08:17:20;;;;;;;0.10;0.10;;;18.60;99.90;;;;;;5072864;28;20681;-84
2023/05/26 08:19:46;;;;;;;0.10;0.10;;;18.70;99.90;;;;;;5071766;28;20193;-85
2023/05/26 08:22:12;;;;;;;0.10;0.10;;;18.70;99.90;;;;;;5072191;28;20212;-82
2023/05/26 08:24:38;;;;;;;0.10;0.10;;;18.40;99.90;;;;;;5074892;28;20521;-82
2023/05/26 08:27:05;;;;;;;0.10;0.10;;;18.60;99.90;;;;;;5074373;28;20224;-81
2023/05/26 08:29:30;;;;;;;0.10;0.10;;;18.90;99.90;;;;;;5072602;28;20245;-82
2023/05/26 08:31:56;;;;;;;0.63;0.63;;;18.60;99.90;;;;;;5072284;28;20185;-83
2023/05/26 08:34:22;;;;;;;0.10;0.10;;;18.80;99.90;;;;;;5074174;28;20189;-83
2023/05/26 08:36:48;;;;;;;0.10;0.10;;;18.70;99.90;;;;;;5070970;28;20203;-83
2023/05/26 08:39:13;;;;;;;0.10;0.10;;;18.70;99.90;;;;;;5071756;28;20192;-82
2023/05/26 08:41:53;;;;;;;0.10;0.10;;;19.40;99.90;;;;;;5070226;28;20653;-82
2023/05/26 08:44:18;;;;;;;0.10;0.10;;;19.00;99.90;;;;;;5070887;28;20242;-83
2023/05/26 08:46:48;;;;;;;0.10;0.10;;;19.40;99.90;;;;;;5072205;28;20209;-83
2023/05/26 08:49:19;;;;;;;0.10;0.10;;;19.50;99.90;;;;;;5068578;28;20212;-83
2023/05/26 08:51:48;;;;;;;0.10;0.10;;;19.30;99.90;;;;;;5070900;28;20299;-83
2023/05/26 08:54:13;;;;;;;4.53;4.33;;;19.10;99.90;;;;;;5068992;28;20692;-83
2023/05/26 08:56:40;;;;;;;0.10;0.10;;;19.50;99.90;;;;;;5069776;28;20228;-84
2023/05/26 08:59:08;;;;;;;0.10;0.10;;;19.80;99.90;;;;;;5068200;28;20655;-84
2023/05/26 09:01:34;;;;;;;0.10;0.10;;;19.80;99.90;;;;;;5070395;28;20191;-84
2023/05/26 09:04:00;;;;;;;0.10;0.10;;;20.30;99.90;;;;;;5069977;28;20608;-83
2023/05/26 09:06:26;;;;;;;0.10;0.10;;;20.60;99.90;;;;;;5068413;28;20204;-83
2023/05/26 09:08:52;;;;;;;0.10;0.10;;;20.10;99.90;;;;;;5071176;28;20196;-83
2023/05/26 09:11:27;;;;;;;0.10;0.10;;;19.70;99.90;;;;;;5071909;28;20173;-83
2023/05/26 09:13:55;;;;;;;0.10;0.10;;;20.00;99.90;;;;;;5073251;28;20188;-83
2023/05/26 09:16:24;;;;;;;0.10;0.10;;;20.10;99.90;;;;;;5071396;28;20203;-83
2023/05/26 09:18:58;;;;;;;0.10;0.10;;;20.20;99.90;;;;;;5070808;28;20329;-83
2023/05/26 09:21:25;;;;;;;0.10;0.10;;;20.50;99.90;;;;;;5069217;28;20177;-82
2023/05/26 09:23:59;;;;;;;0.10;0.10;;;20.30;99.90;;;;;;5069056;28;20204;-82
2023/05/26 09:26:30;;;;;;;0.10;0.10;;;19.50;99.90;;;;;;5067973;28;20200;-82
2023/05/26 09:28:57;;;;;;;0.10;0.10;;;20.10;99.90;;;;;;5070827;28;20207;-83
2023/05/26 09:31:23;;;;;;;0.10;0.10;;;20.20;99.90;;;;;;5069772;28;20196;-81
2023/05/26 09:33:49;;;;;;;0.10;0.10;;;20.60;99.90;;;;;;5070521;28;20680;-82
2023/05/26 09:36:23;;;;;;;0.10;0.10;;;20.90;99.90;;;;;;5071635;28;20201;-81
2023/05/26 09:38:51;;;;;;;0.10;0.10;;;21.00;99.90;;;;;;5069021;28;20256;-82
2023/05/26 09:41:20;;;;;;;0.10;0.10;;;20.50;99.90;;;;;;5068147;28;20212;-81
2023/05/26 09:43:48;;;;;;;0.10;0.10;;;20.60;99.90;;;;;;5082172;28;20192;-81
2023/05/26 09:46:22;;;;;;;0.10;0.10;;;20.60;99.90;;;;;;5074075;28;20292;-82
2023/05/26 09:48:51;;;;;;;0.10;0.10;;;20.40;99.90;;;;;;5075886;28;20196;-83
2023/05/26 09:51:28;;;;;;;0.10;0.10;;;20.10;99.90;;;;;;5071148;28;20212;-82
2023/05/26 09:53:54;;;;;;;0.10;0.10;;;20.20;99.90;;;;;;5072902;28;20256;-82
2023/05/26 09:56:21;;;;;;;0.10;0.10;;;20.10;99.90;;;;;;5071790;28;20204;-83
2023/05/26 09:58:48;;;;;;;0.10;0.10;;;20.40;99.90;;;;;;5071155;28;20241;-82
2023/05/26 10:01:16;;;;;;;0.10;0.10;;;20.70;99.90;;;;;;5072438;28;20559;-82
2023/05/26 10:03:41;;;;;;;0.10;0.10;;;21.00;99.90;;;;;;5069341;28;20725;-82
2023/05/26 10:06:07;;;;;;;0.10;0.10;;;21.30;99.90;;;;;;5073865;28;20299;-82
2023/05/26 10:08:35;;;;;;;0.10;0.10;;;21.30;99.90;;;;;;5073196;28;20215;-82
2023/05/26 10:11:01;;;;;;;0.10;0.10;;;21.10;99.90;;;;;;5074882;28;20176;-82
2023/05/26 10:13:27;;;;;;;0.10;0.10;;;20.80;99.90;;;;;;5074382;28;20184;-82
2023/05/26 10:15:52;;;;;;;0.10;0.10;;;21.00;99.90;;;;;;5071542;28;20226;-82
2023/05/26 10:18:18;;;;;;;0.10;0.10;;;21.20;99.90;;;;;;5072013;28;20702;-84
2023/05/26 10:20:50;;;;;;;0.10;0.10;;;21.20;99.90;;;;;;5074933;28;20670;-84
2023/05/26 10:23:29;;;;;;;0.10;0.10;;;21.10;99.90;;;;;;5076890;28;21097;-87
2023/05/26 10:26:01;;;;;;;0.10;0.10;;;21.40;99.90;;;;;;5071293;28;20282;-83
2023/05/26 10:28:46;;;;;;;0.10;0.10;;;21.70;99.90;;;;;;5075265;28;20223;-83
2023/05/26 10:31:30;;;;;;;0.10;0.10;;;21.40;99.90;;;;;;5074182;28;20552;-83
2023/05/26 10:33:57;;;;;;;0.10;0.10;;;21.60;99.90;;;;;;5070959;28;20177;-83
2023/05/26 10:36:23;;;;;;;0.10;0.10;;;21.20;99.90;;;;;;5074275;28;20221;-84
2023/05/26 10:38:53;;;;;;;0.10;0.10;;;21.00;99.90;;;;;;5074485;28;20184;-82
2023/05/26 10:41:37;;;;;;;0.10;0.10;;;21.20;99.90;;;;;;5075778;28;20547;-83
2023/05/26 10:44:03;;;;;;;0.10;0.10;;;21.40;99.90;;;;;;5073747;28;20189;-82
2023/05/26 10:46:36;;;;;;;0.10;0.10;;;21.80;99.90;;;;;;5075168;28;20209;-84
2023/05/26 10:49:02;;;;;;;0.10;0.10;;;20.90;99.90;;;;;;5069392;28;20261;-83
2023/05/26 10:51:32;;;;;;;0.20;0.20;;;21.40;99.90;;;;;;5070773;28;20218;-84
2023/05/26 10:53:58;;;;;;;0.10;0.10;;;21.10;99.90;;;;;;5068856;28;20176;-82
2023/05/26 10:56:33;;;;;;;0.10;0.10;;;21.30;99.90;;;;;;5078928;28;20204;-82
2023/05/26 10:58:59;;;;;;;0.10;0.10;;;21.10;99.90;;;;;;5074768;28;20271;-82
2023/05/26 11:01:32;;;;;;;0.10;0.10;;;21.10;99.90;;;;;;5079533;28;20245;-82
2023/05/26 11:04:10;;;;;;;0.10;0.10;;;21.40;99.90;;;;;;5077584;28;20562;-82
2023/05/26 11:06:44;;;;;;;0.10;0.10;;;21.10;99.90;;;;;;5075103;28;20211;-83
2023/05/26 11:09:10;;;;;;;0.10;0.10;;;20.90;99.90;;;;;;5080477;28;20203;-82
2023/05/26 11:11:38;;;;;;;0.10;0.10;;;21.10;99.90;;;;;;5079208;28;20263;-82
2023/05/26 11:14:06;;;;;;;0.10;0.10;;;20.90;99.90;;;;;;5075988;28;21155;-83
2023/05/26 11:16:36;;;;;;;0.10;0.10;;;21.00;99.90;;;;;;5075885;28;20199;-82
2023/05/26 11:19:07;;;;;;;0.10;0.10;;;21.10;99.90;;;;;;5073708;28;20186;-82
2023/05/26 11:21:34;;;;;;;0.10;0.10;;;21.30;99.90;;;;;;5075962;28;20184;-83
2023/05/26 11:24:00;;;;;;;0.10;0.10;;;21.80;99.90;;;;;;5072605;28;20822;-82
2023/05/26 11:26:28;;;;;;;0.10;0.10;;;22.00;99.90;;;;;;5072779;28;20207;-82
2023/05/26 11:28:54;;;;;;;0.10;0.10;;;21.90;99.90;;;;;;5074813;28;20211;-82
2023/05/26 11:31:22;;;;;;;2.33;2.23;;;21.00;99.90;;;;;;5076126;28;20614;-82
2023/05/26 11:33:48;;;;;;;0.10;0.10;;;20.70;99.90;;;;;;5076273;28;20181;-82
2023/05/26 11:36:18;;;;;;;0.10;0.10;;;20.90;99.90;;;;;;5076869;28;20204;-82
2023/05/26 11:38:47;;;;;;;0.10;0.10;;;21.10;99.90;;;;;;5075859;28;20212;-83
2023/05/26 11:41:17;;;;;;;0.10;0.10;;;20.80;99.90;;;;;;5069339;28;20191;-82
2023/05/26 11:43:46;;;;;;;0.10;0.10;;;21.20;99.90;;;;;;5070544;28;20184;-82
2023/05/26 11:46:14;;;;;;;0.10;0.10;;;21.90;99.90;;;;;;5070628;28;21235;-83
2023/05/26 11:48:42;;;;;;;0.10;0.10;;;22.00;99.90;;;;;;5070632;28;20196;-81
2023/05/26 11:51:12;;;;;;;0.10;0.10;;;22.20;99.90;;;;;;5076888;28;20188;-82
2023/05/26 11:53:39;;;;;;;0.10;0.10;;;22.20;99.90;;;;;;5056577;28;20751;-84
2023/05/26 11:56:09;;;;;;;0.10;0.10;;;21.70;99.90;;;;;;5070977;28;20510;-84
2023/05/26 11:58:37;;;;;;;0.10;0.10;;;21.30;99.90;;;;;;5073289;28;20204;-82
2023/05/26 12:01:05;;;;;;;0.10;0.10;;;21.60;99.90;;;;;;5079002;28;20789;-84
2023/05/26 12:03:36;;;;;;;0.10;0.10;;;21.20;99.90;;;;;;5075566;28;20197;-84
2023/05/26 12:06:06;;;;;;;0.10;0.10;;;21.60;99.90;;;;;;5066895;28;20181;-84
2023/05/26 12:08:42;;;;;;;0.10;0.10;;;21.60;99.90;;;;;;5066246;28;20339;-84
2023/05/26 12:11:18;;;;;;;0.10;0.10;;;21.60;99.90;;;;;;5068865;28;20180;-84
2023/05/26 12:13:44;;;;;;;0.10;0.10;;;22.10;99.90;;;;;;5072754;28;20193;-83
2023/05/26 12:16:34;;;;;;;0.10;0.10;;;22.10;99.90;;;;;;5071124;28;20215;-83
2023/05/26 12:19:04;;;;;;;0.10;0.10;;;21.90;99.90;;;;;;5069357;28;20275;-82
2023/05/26 12:21:37;;;;;;;0.10;0.10;;;21.90;99.90;;;;;;5069900;28;20595;-82
2023/05/26 12:24:03;;;;;;;0.10;0.10;;;22.20;99.90;;;;;;5066062;28;20195;-82
2023/05/26 12:26:31;;;;;;;0.10;0.10;;;22.20;99.90;;;;;;5074332;28;20211;-82
2023/05/26 12:29:17;;;;;;;0.10;0.10;;;22.00;99.90;;;;;;5074064;28;20200;-82
2023/05/26 12:31:48;;;;;;;0.10;0.10;;;21.80;99.90;;;;;;5071746;28;20196;-81
2023/05/26 12:34:17;;;;;;;0.20;0.20;;;22.00;99.90;;;;;;5074787;28;20627;-82
2023/05/26 12:36:44;;;;;;;0.10;0.10;;;22.20;99.90;;;;;;5071538;28;20205;-81
2023/05/26 12:39:10;;;;;;;0.10;0.10;;;22.40;99.90;;;;;;5068454;28;20638;-81
2023/05/26 12:41:36;;;;;;;0.10;0.10;;;22.50;99.90;;;;;;5077168;28;20200;-81
2023/05/26 12:44:02;;;;;;;0.10;0.10;;;22.40;99.90;;;;;;5077730;28;20189;-80
2023/05/26 12:46:28;;;;;;;0.10;0.10;;;22.10;99.90;;;;;;5075192;28;20197;-82
2023/05/26 12:48:54;;;;;;;0.10;0.10;;;22.40;99.90;;;;;;5071071;28;20288;-87